createdAt,value
2022-10-05T00:00:53.446Z,18.46
2022-10-05T00:01:56.600Z,18.43
2022-10-05T00:02:58.554Z,18.45
2022-10-05T00:04:23.968Z,18.46
2022-10-05T00:05:34.127Z,18.45
2022-10-05T00:06:35.975Z,18.41
2022-10-05T00:07:37.727Z,18.41
2022-10-05T00:08:39.732Z,18.40
2022-10-05T00:09:42.109Z,18.39
2022-10-05T00:10:46.452Z,18.40
2022-10-05T00:11:49.932Z,18.38
2022-10-05T00:12:51.758Z,18.40
2022-10-05T00:13:53.538Z,18.41
2022-10-05T00:15:00.563Z,18.41
2022-10-05T00:16:16.234Z,18.40
2022-10-05T00:17:30.164Z,18.39
2022-10-05T00:18:32.840Z,18.39
2022-10-05T00:19:39.628Z,18.36
2022-10-05T00:20:43.775Z,18.33
2022-10-05T00:21:45.559Z,18.30
2022-10-05T00:22:48.082Z,18.27
2022-10-05T00:23:50.687Z,18.25
2022-10-05T00:24:59.942Z,18.20
2022-10-05T00:26:24.967Z,18.19
2022-10-05T00:27:36.482Z,18.14
2022-10-05T00:28:38.284Z,18.10
2022-10-05T00:29:40.156Z,18.10
2022-10-05T00:30:41.957Z,18.10
2022-10-05T00:31:43.680Z,18.11
2022-10-05T00:32:46.839Z,18.11
2022-10-05T00:33:49.487Z,18.11
2022-10-05T00:34:51.669Z,18.11
2022-10-05T00:35:54.201Z,18.12
2022-10-05T00:36:55.969Z,18.11
2022-10-05T00:37:57.696Z,18.11
2022-10-05T00:39:01.881Z,18.12
2022-10-05T00:40:43.753Z,18.14
2022-10-05T00:42:09.778Z,18.14
2022-10-05T00:43:23.354Z,18.13
2022-10-05T00:44:39.207Z,18.12
2022-10-05T00:45:59.997Z,18.11
2022-10-05T00:47:16.946Z,18.12
2022-10-05T00:48:43.049Z,18.12
2022-10-05T00:50:13.690Z,18.13
2022-10-05T00:51:29.262Z,18.11
2022-10-05T00:53:01.930Z,18.12
2022-10-05T00:54:43.031Z,18.10
2022-10-05T00:56:35.859Z,18.08
2022-10-05T00:57:44.152Z,18.02
2022-10-05T00:58:55.967Z,18.02
2022-10-05T01:00:15.779Z,18.02
2022-10-05T01:01:45.109Z,18.03
2022-10-05T01:03:19.035Z,18.04
2022-10-05T01:04:53.955Z,18.05
2022-10-05T01:06:16.318Z,18.01
2022-10-05T01:08:24.873Z,18.00
2022-10-05T01:10:10.707Z,17.99
2022-10-05T01:11:35.861Z,17.96
2022-10-05T01:13:00.131Z,17.96
2022-10-05T01:14:10.316Z,17.95
2022-10-05T01:15:27.458Z,17.97
2022-10-05T01:16:48.837Z,17.93
2022-10-05T01:18:21.084Z,17.92
2022-10-05T01:19:55.360Z,17.89
2022-10-05T01:21:21.400Z,17.87
2022-10-05T01:22:49.915Z,17.85
2022-10-05T01:24:10.113Z,17.81
2022-10-05T01:25:48.305Z,17.80
2022-10-05T01:27:15.785Z,17.78
2022-10-05T01:28:27.993Z,17.75
2022-10-05T01:29:52.170Z,17.75
2022-10-05T01:31:34.547Z,17.71
2022-10-05T01:33:00.004Z,17.66
2022-10-05T01:34:27.304Z,17.61
2022-10-05T01:35:47.040Z,17.60
2022-10-05T01:37:25.712Z,17.58
2022-10-05T01:39:01.134Z,17.56
2022-10-05T01:40:16.154Z,17.55
2022-10-05T01:42:01.583Z,17.54
2022-10-05T01:43:22.651Z,17.52
2022-10-05T01:44:51.435Z,17.50
2022-10-05T01:46:22.558Z,17.52
2022-10-05T01:47:47.837Z,17.52
2022-10-05T01:49:11.919Z,17.52
2022-10-05T01:50:49.833Z,17.54
2022-10-05T01:52:16.972Z,17.52
2022-10-05T01:54:18.084Z,17.54
2022-10-05T01:55:57.315Z,17.52
2022-10-05T01:57:29.969Z,17.51
2022-10-05T01:58:56.018Z,17.51
2022-10-05T02:00:11.237Z,17.50
2022-10-05T02:02:15.365Z,17.49
2022-10-05T02:03:30.595Z,17.45
2022-10-05T02:05:01.574Z,17.46
2022-10-05T02:06:17.437Z,17.46
2022-10-05T02:07:49.481Z,17.47
2022-10-05T02:09:05.641Z,17.46
2022-10-05T02:10:31.148Z,17.47
2022-10-05T02:11:34.129Z,17.42
2022-10-05T02:12:38.842Z,17.44
2022-10-05T02:14:20.267Z,17.46
2022-10-05T02:15:32.669Z,17.43
2022-10-05T02:16:41.090Z,17.44
2022-10-05T02:17:50.277Z,17.40
2022-10-05T02:19:18.400Z,17.39
2022-10-05T02:20:29.704Z,17.41
2022-10-05T02:21:36.350Z,17.37
2022-10-05T02:22:46.532Z,17.36
2022-10-05T02:23:54.494Z,17.35
2022-10-05T02:25:06.425Z,17.38
2022-10-05T02:26:12.640Z,17.34
2022-10-05T02:27:24.358Z,17.35
2022-10-05T02:28:47.928Z,17.38
2022-10-05T02:29:56.105Z,17.37
2022-10-05T02:31:14.059Z,17.39
2022-10-05T02:32:32.543Z,17.41
2022-10-05T02:33:35.334Z,17.40
2022-10-05T02:34:41.171Z,17.42
2022-10-05T02:35:42.907Z,17.42
2022-10-05T02:36:47.089Z,17.42
2022-10-05T02:38:36.516Z,17.47
2022-10-05T02:40:18.686Z,17.48
2022-10-05T02:42:03.285Z,17.48
2022-10-05T02:43:23.828Z,17.49
2022-10-05T02:44:44.280Z,17.46
2022-10-05T02:46:18.931Z,17.49
2022-10-05T02:47:40.144Z,17.48
2022-10-05T02:49:02.629Z,17.48
2022-10-05T02:50:42.248Z,17.48
2022-10-05T02:52:21.696Z,17.48
2022-10-05T02:53:32.783Z,17.46
2022-10-05T02:55:13.737Z,17.47
2022-10-05T02:56:27.285Z,17.47
2022-10-05T02:57:39.128Z,17.47
2022-10-05T02:59:03.743Z,17.47
2022-10-05T03:00:22.476Z,17.46
2022-10-05T03:01:50.409Z,17.44
2022-10-05T03:03:06.447Z,17.41
2022-10-05T03:04:36.900Z,17.39
2022-10-05T03:05:51.364Z,17.36
2022-10-05T03:07:20.555Z,17.36
2022-10-05T03:08:52.885Z,17.37
2022-10-05T03:10:14.736Z,17.36
2022-10-05T03:11:45.616Z,17.36
2022-10-05T03:13:05.362Z,17.36
2022-10-05T03:14:46.622Z,17.36
2022-10-05T03:16:00.314Z,17.32
2022-10-05T03:17:25.378Z,17.27
2022-10-05T03:18:47.496Z,17.25
2022-10-05T03:20:07.032Z,17.22
2022-10-05T03:21:17.612Z,17.20
2022-10-05T03:23:03.461Z,17.20
2022-10-05T03:24:35.431Z,17.20
2022-10-05T03:26:07.136Z,17.20
2022-10-05T03:27:18.349Z,17.17
2022-10-05T03:28:28.621Z,17.16
2022-10-05T03:29:50.503Z,17.15
2022-10-05T03:31:44.873Z,17.15
2022-10-05T03:33:01.300Z,17.13
2022-10-05T03:34:35.617Z,17.09
2022-10-05T03:35:49.124Z,17.06
2022-10-05T03:37:20.692Z,17.07
2022-10-05T03:38:30.341Z,17.05
2022-10-05T03:39:46.830Z,17.04
2022-10-05T03:41:16.185Z,17.00
2022-10-05T03:42:17.814Z,16.97
2022-10-05T03:43:43.652Z,16.98
2022-10-05T03:45:30.653Z,17.00
2022-10-05T03:47:35.861Z,16.99
2022-10-05T03:48:51.839Z,16.96
2022-10-05T03:50:13.163Z,16.95
2022-10-05T03:51:29.731Z,16.98
2022-10-05T03:53:06.733Z,16.99
2022-10-05T03:54:22.345Z,16.98
2022-10-05T03:55:36.019Z,16.98
2022-10-05T03:56:50.540Z,17.00
2022-10-05T03:57:58.471Z,17.01
2022-10-05T03:59:18.380Z,17.04
2022-10-05T04:00:23.473Z,17.03
2022-10-05T04:01:43.054Z,17.06
2022-10-05T04:03:15.591Z,17.07
2022-10-05T04:04:32.802Z,17.07
2022-10-05T04:05:48.473Z,17.07
2022-10-05T04:06:54.438Z,17.08
2022-10-05T04:08:07.021Z,17.09
2022-10-05T04:09:19.115Z,17.09
2022-10-05T04:10:43.152Z,17.10
2022-10-05T04:12:23.389Z,17.11
2022-10-05T04:14:12.096Z,17.13
2022-10-05T04:15:37.564Z,17.12
2022-10-05T04:16:47.104Z,17.10
2022-10-05T04:18:19.957Z,17.10
2022-10-05T04:19:40.285Z,17.10
2022-10-05T04:20:52.057Z,17.10
2022-10-05T04:22:20.883Z,17.09
2022-10-05T04:23:44.499Z,17.09
2022-10-05T04:24:56.203Z,17.08
2022-10-05T04:26:09.411Z,17.07
2022-10-05T04:27:30.847Z,17.08
2022-10-05T04:29:05.917Z,17.09
2022-10-05T04:30:24.393Z,17.07
2022-10-05T04:32:02.110Z,17.07
2022-10-05T04:33:12.478Z,17.05
2022-10-05T04:34:57.048Z,17.05
2022-10-05T04:36:07.796Z,17.04
2022-10-05T04:37:26.980Z,17.00
2022-10-05T04:38:48.313Z,17.01
2022-10-05T04:40:30.938Z,17.00
2022-10-05T04:42:35.890Z,16.98
2022-10-05T04:43:54.605Z,16.95
2022-10-05T04:45:37.030Z,16.93
2022-10-05T04:47:06.825Z,16.90
2022-10-05T04:48:46.506Z,16.89
2022-10-05T04:50:24.111Z,16.86
2022-10-05T04:51:55.926Z,16.84
2022-10-05T04:53:19.419Z,16.83
2022-10-05T04:55:08.664Z,16.83
2022-10-05T04:56:27.761Z,16.79
2022-10-05T04:57:47.045Z,16.79
2022-10-05T04:59:16.599Z,16.77
2022-10-05T05:00:28.255Z,16.75
2022-10-05T05:02:04.550Z,16.73
2022-10-05T05:03:34.606Z,16.74
2022-10-05T05:05:13.328Z,16.73
2022-10-05T05:06:33.262Z,16.69
2022-10-05T05:07:49.349Z,16.67
2022-10-05T05:09:27.202Z,16.68
2022-10-05T05:11:04.423Z,16.68
2022-10-05T05:12:51.085Z,16.66
2022-10-05T05:13:58.401Z,16.64
2022-10-05T05:15:31.554Z,16.63
2022-10-05T05:16:43.880Z,16.62
2022-10-05T05:18:26.480Z,16.61
2022-10-05T05:20:11.379Z,16.59
2022-10-05T05:21:52.677Z,16.57
2022-10-05T05:23:35.110Z,16.56
2022-10-05T05:25:36.898Z,16.53
2022-10-05T05:27:15.675Z,16.50
2022-10-05T05:28:57.703Z,16.51
2022-10-05T05:30:25.028Z,16.49
2022-10-05T05:31:55.515Z,16.48
2022-10-05T05:33:54.198Z,16.47
2022-10-05T05:35:23.448Z,16.45
2022-10-05T05:36:54.415Z,16.44
2022-10-05T05:38:14.741Z,16.43
2022-10-05T05:40:02.313Z,16.44
2022-10-05T05:41:22.556Z,16.42
2022-10-05T05:42:33.159Z,16.41
2022-10-05T05:44:11.775Z,16.41
2022-10-05T05:45:49.513Z,16.39
2022-10-05T05:47:04.411Z,16.37
2022-10-05T05:48:15.182Z,16.38
2022-10-05T05:49:35.816Z,16.38
2022-10-05T05:51:04.010Z,16.40
2022-10-05T05:52:18.257Z,16.39
2022-10-05T05:53:36.710Z,16.37
2022-10-05T05:54:53.129Z,16.36
2022-10-05T05:56:06.954Z,16.34
2022-10-05T05:57:21.918Z,16.35
2022-10-05T05:58:32.871Z,16.34
2022-10-05T05:59:50.993Z,16.33
2022-10-05T06:01:30.599Z,16.33
2022-10-05T06:03:00.627Z,16.34
2022-10-05T06:04:18.105Z,16.32
2022-10-05T06:05:43.617Z,16.31
2022-10-05T06:06:52.481Z,16.28
2022-10-05T06:07:58.218Z,16.27
2022-10-05T06:09:06.495Z,16.27
2022-10-05T06:10:38.252Z,16.26
2022-10-05T06:11:54.188Z,16.26
2022-10-05T06:13:03.909Z,16.24
2022-10-05T06:14:18.443Z,16.26
2022-10-05T06:15:38.502Z,16.27
2022-10-05T06:17:03.661Z,16.27
2022-10-05T06:18:14.036Z,16.26
2022-10-05T06:19:20.366Z,16.23
2022-10-05T06:20:38.169Z,16.26
2022-10-05T06:22:06.770Z,16.29
2022-10-05T06:23:23.844Z,16.30
2022-10-05T06:24:35.936Z,16.31
2022-10-05T06:26:10.831Z,16.33
2022-10-05T06:27:38.563Z,16.36
2022-10-05T06:28:42.224Z,16.33
2022-10-05T06:30:13.460Z,16.38
2022-10-05T06:31:34.074Z,16.36
2022-10-05T06:32:50.796Z,16.40
2022-10-05T06:34:14.669Z,16.38
2022-10-05T06:36:03.161Z,16.44
2022-10-05T06:37:29.587Z,16.45
2022-10-05T06:39:10.973Z,16.50
2022-10-05T06:40:45.367Z,16.52
2022-10-05T06:42:23.769Z,16.55
2022-10-05T06:43:59.636Z,16.55
2022-10-05T06:45:26.571Z,16.56
2022-10-05T06:46:59.169Z,16.55
2022-10-05T06:48:31.426Z,16.56
2022-10-05T06:50:09.709Z,16.57
2022-10-05T06:51:39.174Z,16.61
2022-10-05T06:53:33.261Z,16.66
2022-10-05T06:55:02.551Z,16.71
2022-10-05T06:56:59.753Z,16.74
2022-10-05T06:58:30.507Z,16.76
2022-10-05T07:00:02.755Z,16.78
2022-10-05T07:01:18.199Z,16.80
2022-10-05T07:02:39.490Z,16.83
2022-10-05T07:04:19.400Z,16.87
2022-10-05T07:06:03.766Z,16.92
2022-10-05T07:07:21.621Z,16.92
2022-10-05T07:09:20.130Z,16.98
2022-10-05T07:10:38.104Z,16.97
2022-10-05T07:12:07.860Z,17.01
2022-10-05T07:14:00.555Z,17.03
2022-10-05T07:15:20.848Z,17.06
2022-10-05T07:16:52.485Z,17.07
2022-10-05T07:18:25.929Z,17.09
2022-10-05T07:20:10.733Z,17.10
2022-10-05T07:21:27.224Z,17.12
2022-10-05T07:22:54.759Z,17.16
2022-10-05T07:24:09.895Z,17.17
2022-10-05T07:25:50.235Z,17.22
2022-10-05T07:27:20.992Z,17.27
2022-10-05T07:28:39.488Z,17.27
2022-10-05T07:30:12.314Z,17.29
2022-10-05T07:31:33.025Z,17.27
2022-10-05T07:32:39.814Z,17.28
2022-10-05T07:34:04.878Z,17.32
2022-10-05T07:35:43.054Z,17.34
2022-10-05T07:37:08.391Z,17.40
2022-10-05T07:38:38.546Z,17.45
2022-10-05T07:40:01.050Z,17.49
2022-10-05T07:41:44.023Z,17.55
2022-10-05T07:42:59.897Z,17.60
2022-10-05T07:44:36.940Z,17.66
2022-10-05T07:46:05.624Z,17.71
2022-10-05T07:47:18.680Z,17.73
2022-10-05T07:48:35.385Z,17.75
2022-10-05T07:49:58.698Z,17.81
2022-10-05T07:51:15.736Z,17.84
2022-10-05T07:52:34.625Z,17.87
2022-10-05T07:53:51.679Z,17.93
2022-10-05T07:55:07.636Z,17.98
2022-10-05T07:56:32.308Z,18.02
2022-10-05T07:57:44.713Z,18.04
2022-10-05T07:58:54.916Z,18.06
2022-10-05T08:00:04.867Z,18.09
2022-10-05T08:01:26.753Z,18.10
2022-10-05T08:02:49.368Z,18.18
2022-10-05T08:03:56.854Z,18.19
2022-10-05T08:05:16.256Z,18.22
2022-10-05T08:06:57.808Z,18.30
2022-10-05T08:08:18.124Z,18.31
2022-10-05T08:09:50.487Z,18.38
2022-10-05T08:11:13.420Z,18.40
2022-10-05T08:12:49.768Z,18.44
2022-10-05T08:13:57.038Z,18.45
2022-10-05T08:15:16.354Z,18.51
2022-10-05T08:16:19.643Z,18.50
2022-10-05T08:17:44.847Z,18.59
2022-10-05T08:19:11.001Z,18.62
2022-10-05T08:20:35.325Z,18.67
2022-10-05T08:22:03.779Z,18.68
2022-10-05T08:23:38.878Z,18.74
2022-10-05T08:24:56.866Z,18.81
2022-10-05T08:26:51.742Z,18.87
2022-10-05T08:28:24.169Z,18.91
2022-10-05T08:29:48.460Z,18.93
2022-10-05T08:31:08.404Z,18.99
2022-10-05T08:32:36.766Z,19.05
2022-10-05T08:34:12.087Z,19.15
2022-10-05T08:35:49.513Z,19.18
2022-10-05T08:37:27.553Z,19.25
2022-10-05T08:38:34.120Z,19.25
2022-10-05T08:39:45.154Z,19.28
2022-10-05T08:41:11.401Z,19.36
2022-10-05T08:42:30.843Z,19.37
2022-10-05T08:44:33.264Z,19.46
2022-10-05T08:46:25.848Z,19.51
2022-10-05T08:47:55.330Z,19.51
2022-10-05T08:49:14.882Z,19.55
2022-10-05T08:50:50.038Z,19.60
2022-10-05T08:52:37.335Z,19.63
2022-10-05T08:54:07.690Z,19.66
2022-10-05T08:55:15.290Z,19.66
2022-10-05T08:57:05.898Z,19.73
2022-10-05T08:58:45.223Z,19.76
2022-10-05T09:00:23.718Z,19.82
2022-10-05T09:01:51.974Z,19.85
2022-10-05T09:03:34.351Z,19.91
2022-10-05T09:04:42.315Z,19.92
2022-10-05T09:06:15.990Z,19.93
2022-10-05T09:07:24.297Z,19.98
2022-10-05T09:09:04.978Z,20.06
2022-10-05T09:10:22.333Z,20.09
2022-10-05T09:11:37.127Z,20.09
2022-10-05T09:12:57.284Z,20.14
2022-10-05T09:14:24.878Z,20.17
2022-10-05T09:16:18.001Z,20.23
2022-10-05T09:18:15.757Z,20.27
2022-10-05T09:20:01.636Z,20.31
2022-10-05T09:21:42.174Z,20.35
2022-10-05T09:23:35.940Z,20.40
2022-10-05T09:25:08.202Z,20.45
2022-10-05T09:26:31.851Z,20.49
2022-10-05T09:27:43.499Z,20.47
2022-10-05T09:28:48.051Z,20.49
2022-10-05T09:30:20.621Z,20.57
2022-10-05T09:31:43.905Z,20.63
2022-10-05T09:33:10.608Z,20.65
2022-10-05T09:34:31.750Z,20.71
2022-10-05T09:36:24.911Z,20.80
2022-10-05T09:38:08.258Z,20.93
2022-10-05T09:39:19.132Z,21.08
2022-10-05T09:40:55.032Z,21.33
2022-10-05T09:43:03.698Z,21.69
2022-10-05T09:44:33.893Z,21.98
2022-10-05T09:46:04.860Z,22.41
2022-10-05T09:47:41.744Z,22.84
2022-10-05T09:48:58.145Z,23.01
2022-10-05T09:50:48.105Z,23.38
2022-10-05T09:52:21.506Z,23.83
2022-10-05T09:54:13.934Z,24.18
2022-10-05T09:56:15.996Z,24.80
2022-10-05T09:57:53.143Z,25.37
2022-10-05T09:59:39.676Z,25.81
2022-10-05T10:01:03.597Z,26.11
2022-10-05T10:02:27.498Z,26.51
2022-10-05T10:04:06.958Z,27.10
2022-10-05T10:05:33.704Z,27.41
2022-10-05T10:07:13.222Z,27.69
2022-10-05T10:09:21.199Z,28.23
2022-10-05T10:11:09.034Z,28.70
2022-10-05T10:12:38.132Z,29.09
2022-10-05T10:14:20.904Z,29.30
2022-10-05T10:15:59.630Z,29.69
2022-10-05T10:17:22.346Z,29.93
2022-10-05T10:18:24.000Z,30.00
2022-10-05T10:19:56.296Z,30.21
2022-10-05T10:21:13.533Z,30.38
2022-10-05T10:22:43.329Z,30.43
2022-10-05T10:24:00.511Z,30.63
2022-10-05T10:25:11.273Z,30.68
2022-10-05T10:27:02.774Z,30.87
2022-10-05T10:28:19.912Z,30.92
2022-10-05T10:29:42.874Z,31.09
2022-10-05T10:31:09.090Z,31.14
2022-10-05T10:32:43.594Z,31.36
2022-10-05T10:34:07.819Z,31.43
2022-10-05T10:35:31.727Z,31.56
2022-10-05T10:37:18.465Z,31.68
2022-10-05T10:38:41.311Z,31.77
2022-10-05T10:40:23.323Z,31.88
2022-10-05T10:41:56.653Z,31.90
2022-10-05T10:43:32.360Z,31.94
2022-10-05T10:44:51.510Z,31.95
2022-10-05T10:46:17.800Z,31.96
2022-10-05T10:47:31.493Z,31.94
2022-10-05T10:49:00.069Z,31.94
2022-10-05T10:50:10.527Z,31.91
2022-10-05T10:51:36.583Z,31.93
2022-10-05T10:53:12.327Z,31.93
2022-10-05T10:54:27.357Z,31.86
2022-10-05T10:55:57.026Z,31.78
2022-10-05T10:57:17.682Z,31.71
2022-10-05T10:58:58.860Z,31.65
2022-10-05T11:00:26.845Z,31.58
2022-10-05T11:02:15.212Z,31.44
2022-10-05T11:04:12.758Z,31.31
2022-10-05T11:05:38.959Z,31.10
2022-10-05T11:06:53.817Z,30.90
2022-10-05T11:08:20.074Z,30.78
2022-10-05T11:09:39.612Z,30.63
2022-10-05T11:10:53.752Z,30.51
2022-10-05T11:12:17.757Z,30.40
2022-10-05T11:13:55.588Z,30.27
2022-10-05T11:15:07.682Z,30.19
2022-10-05T11:16:33.777Z,30.08
2022-10-05T11:18:16.632Z,29.95
2022-10-05T11:20:05.303Z,29.78
2022-10-05T11:21:33.824Z,29.61
2022-10-05T11:22:44.457Z,29.53
2022-10-05T11:24:28.071Z,29.40
2022-10-05T11:25:41.369Z,29.30
2022-10-05T11:27:03.177Z,29.22
2022-10-05T11:28:52.837Z,29.10
2022-10-05T11:30:41.159Z,28.99
2022-10-05T11:31:55.084Z,28.88
2022-10-05T11:33:14.800Z,28.80
2022-10-05T11:34:31.383Z,28.72
2022-10-05T11:36:03.554Z,28.65
2022-10-05T11:37:43.868Z,28.59
2022-10-05T11:39:25.866Z,28.54
2022-10-05T11:40:44.609Z,28.45
2022-10-05T11:42:10.234Z,28.40
2022-10-05T11:43:42.928Z,28.33
2022-10-05T11:45:21.895Z,28.27
2022-10-05T11:47:02.808Z,28.16
2022-10-05T11:48:22.753Z,28.08
2022-10-05T11:49:46.308Z,28.03
2022-10-05T11:51:09.089Z,27.96
2022-10-05T11:52:28.736Z,27.89
2022-10-05T11:53:49.028Z,27.85
2022-10-05T11:55:40.895Z,27.83
2022-10-05T11:56:54.664Z,27.78
2022-10-05T11:58:12.760Z,27.67
2022-10-05T11:59:52.825Z,27.68
2022-10-05T12:01:37.204Z,27.62
2022-10-05T12:03:03.783Z,27.56
2022-10-05T12:04:24.451Z,27.50
2022-10-05T12:06:06.020Z,27.47
2022-10-05T12:07:16.635Z,27.42
2022-10-05T12:08:33.482Z,27.38
2022-10-05T12:10:16.911Z,27.36
2022-10-05T12:11:42.707Z,27.35
2022-10-05T12:13:02.532Z,27.29
2022-10-05T12:14:30.213Z,27.26
2022-10-05T12:15:44.653Z,27.22
2022-10-05T12:17:01.634Z,27.20
2022-10-05T12:18:16.316Z,27.18
2022-10-05T12:19:44.033Z,27.16
2022-10-05T12:20:56.176Z,27.13
2022-10-05T12:22:09.814Z,27.10
2022-10-05T12:23:21.134Z,27.12
2022-10-05T12:24:28.623Z,27.10
2022-10-05T12:26:00.932Z,27.11
2022-10-05T12:27:25.214Z,27.12
2022-10-05T12:28:42.973Z,27.09
2022-10-05T12:30:00.439Z,27.08
2022-10-05T12:31:24.595Z,27.09
2022-10-05T12:33:20.796Z,27.09
2022-10-05T12:34:48.538Z,27.03
2022-10-05T12:36:00.198Z,27.00
2022-10-05T12:37:46.603Z,27.00
2022-10-05T12:39:43.602Z,26.98
2022-10-05T12:40:56.735Z,26.94
2022-10-05T12:42:10.232Z,26.93
2022-10-05T12:43:46.801Z,26.95
2022-10-05T12:45:05.839Z,26.94
2022-10-05T12:46:57.436Z,26.97
2022-10-05T12:48:07.786Z,26.95
2022-10-05T12:49:15.209Z,26.91
2022-10-05T12:50:28.179Z,26.91
2022-10-05T12:52:00.091Z,26.92
2022-10-05T12:53:23.350Z,26.92
2022-10-05T12:54:36.915Z,26.89
2022-10-05T12:56:21.459Z,26.95
2022-10-05T12:57:44.201Z,26.97
2022-10-05T12:58:57.785Z,26.98
2022-10-05T13:00:22.990Z,26.99
2022-10-05T13:01:48.337Z,26.98
2022-10-05T13:03:09.798Z,26.98
2022-10-05T13:04:52.237Z,27.00
2022-10-05T13:06:29.503Z,26.98
2022-10-05T13:08:17.987Z,26.98
2022-10-05T13:09:53.384Z,26.94
2022-10-05T13:11:14.861Z,26.92
2022-10-05T13:12:29.784Z,26.88
2022-10-05T13:14:07.336Z,26.88
2022-10-05T13:15:31.431Z,26.88
2022-10-05T13:17:21.330Z,26.91
2022-10-05T13:18:50.956Z,26.93
2022-10-05T13:20:21.498Z,26.91
2022-10-05T13:21:45.780Z,26.91
2022-10-05T13:23:00.524Z,26.90
2022-10-05T13:24:24.600Z,26.88
2022-10-05T13:25:34.668Z,26.92
2022-10-05T13:26:46.170Z,26.91
2022-10-05T13:28:26.195Z,26.96
2022-10-05T13:29:45.490Z,26.96
2022-10-05T13:31:08.000Z,26.95
2022-10-05T13:32:25.950Z,26.94
2022-10-05T13:34:00.361Z,26.95
2022-10-05T13:35:25.816Z,26.96
2022-10-05T13:36:35.408Z,26.96
2022-10-05T13:37:59.787Z,26.95
2022-10-05T13:39:26.716Z,26.94
2022-10-05T13:41:11.431Z,26.98
2022-10-05T13:42:26.780Z,26.95
2022-10-05T13:44:03.798Z,27.00
2022-10-05T13:45:29.746Z,26.98
2022-10-05T13:46:46.474Z,26.97
2022-10-05T13:48:30.479Z,26.98
2022-10-05T13:49:53.656Z,26.97
2022-10-05T13:51:23.517Z,26.99
2022-10-05T13:52:56.532Z,26.99
2022-10-05T13:54:28.722Z,27.02
2022-10-05T13:55:59.317Z,27.02
2022-10-05T13:57:27.579Z,27.00
2022-10-05T13:58:42.692Z,26.97
2022-10-05T13:59:57.685Z,26.96
2022-10-05T14:01:06.950Z,26.97
2022-10-05T14:02:22.825Z,26.95
2022-10-05T14:04:17.103Z,26.98
2022-10-05T14:05:31.025Z,26.94
2022-10-05T14:06:38.702Z,26.90
2022-10-05T14:08:18.568Z,26.95
2022-10-05T14:09:20.201Z,26.88
2022-10-05T14:10:45.525Z,26.88
2022-10-05T14:12:09.194Z,26.83
2022-10-05T14:13:47.076Z,26.87
2022-10-05T14:14:58.426Z,26.81
2022-10-05T14:16:26.200Z,26.81
2022-10-05T14:17:39.877Z,26.77
2022-10-05T14:19:18.587Z,26.76
2022-10-05T14:20:27.275Z,26.73
2022-10-05T14:21:47.232Z,26.74
2022-10-05T14:23:17.328Z,26.75
2022-10-05T14:24:46.972Z,26.71
2022-10-05T14:25:54.182Z,26.67
2022-10-05T14:26:58.304Z,26.63
2022-10-05T14:28:11.931Z,26.64
2022-10-05T14:29:23.985Z,26.59
2022-10-05T14:30:29.092Z,26.56
2022-10-05T14:31:36.292Z,26.56
2022-10-05T14:32:56.096Z,26.58
2022-10-05T14:34:24.933Z,26.54
2022-10-05T14:35:44.503Z,26.51
2022-10-05T14:36:46.251Z,26.47
2022-10-05T14:38:00.668Z,26.50
2022-10-05T14:39:05.019Z,26.48
2022-10-05T14:40:35.703Z,26.51
2022-10-05T14:41:48.716Z,26.47
2022-10-05T14:42:51.311Z,26.42
2022-10-05T14:44:13.201Z,26.47
2022-10-05T14:45:19.757Z,26.44
2022-10-05T14:46:29.856Z,26.43
2022-10-05T14:47:32.105Z,26.39
2022-10-05T14:48:45.722Z,26.43
2022-10-05T14:50:10.510Z,26.41
2022-10-05T14:51:36.251Z,26.43
2022-10-05T14:52:38.976Z,26.38
2022-10-05T14:53:57.084Z,26.36
2022-10-05T14:55:07.502Z,26.34
2022-10-05T14:56:32.138Z,26.32
2022-10-05T14:57:48.080Z,26.30
2022-10-05T14:59:23.088Z,26.28
2022-10-05T15:00:25.953Z,26.21
2022-10-05T15:01:31.759Z,26.19
2022-10-05T15:02:54.357Z,26.20
2022-10-05T15:04:23.733Z,26.18
2022-10-05T15:05:31.222Z,26.09
2022-10-05T15:06:55.220Z,26.06
2022-10-05T15:08:15.717Z,26.03
2022-10-05T15:09:23.349Z,26.00
2022-10-05T15:10:58.927Z,26.00
2022-10-05T15:12:03.920Z,25.94
2022-10-05T15:13:15.035Z,25.91
2022-10-05T15:14:30.032Z,25.89
2022-10-05T15:15:51.917Z,25.88
2022-10-05T15:17:03.136Z,25.82
2022-10-05T15:18:15.047Z,25.79
2022-10-05T15:19:54.085Z,25.77
2022-10-05T15:21:23.902Z,25.74
2022-10-05T15:22:49.527Z,25.70
2022-10-05T15:23:57.354Z,25.66
2022-10-05T15:25:43.038Z,25.66
2022-10-05T15:27:02.025Z,25.62
2022-10-05T15:28:17.377Z,25.61
2022-10-05T15:29:27.115Z,25.56
2022-10-05T15:30:34.624Z,25.55
2022-10-05T15:31:50.411Z,25.52
2022-10-05T15:33:15.365Z,25.53
2022-10-05T15:34:33.892Z,25.50
2022-10-05T15:36:00.505Z,25.49
2022-10-05T15:37:12.488Z,25.46
2022-10-05T15:38:32.723Z,25.44
2022-10-05T15:39:47.277Z,25.41
2022-10-05T15:41:07.088Z,25.38
2022-10-05T15:42:19.473Z,25.34
2022-10-05T15:43:25.488Z,25.32
2022-10-05T15:45:10.683Z,25.33
2022-10-05T15:46:17.396Z,25.27
2022-10-05T15:47:45.807Z,25.26
2022-10-05T15:49:18.470Z,25.26
2022-10-05T15:50:37.237Z,25.23
2022-10-05T15:51:57.348Z,25.21
2022-10-05T15:53:10.487Z,25.17
2022-10-05T15:54:42.093Z,25.16
2022-10-05T15:56:15.704Z,25.13
2022-10-05T15:57:58.102Z,25.12
2022-10-05T15:59:25.405Z,25.09
2022-10-05T16:00:30.147Z,25.03
2022-10-05T16:01:31.845Z,25.00
2022-10-05T16:03:05.468Z,25.03
2022-10-05T16:04:23.282Z,25.01
2022-10-05T16:05:56.802Z,24.97
2022-10-05T16:07:20.719Z,24.96
2022-10-05T16:08:58.963Z,24.94
2022-10-05T16:10:26.458Z,24.92
2022-10-05T16:11:57.506Z,24.92
2022-10-05T16:14:03.371Z,24.90
2022-10-05T16:15:34.292Z,24.89
2022-10-05T16:16:59.499Z,24.85
2022-10-05T16:18:14.605Z,24.83
2022-10-05T16:19:36.933Z,24.81
2022-10-05T16:20:59.925Z,24.80
2022-10-05T16:22:14.760Z,24.77
2022-10-05T16:23:25.249Z,24.77
2022-10-05T16:25:07.626Z,24.78
2022-10-05T16:26:26.476Z,24.75
2022-10-05T16:28:18.542Z,24.76
2022-10-05T16:29:57.349Z,24.74
2022-10-05T16:31:05.954Z,24.71
2022-10-05T16:32:37.389Z,24.71
2022-10-05T16:34:25.075Z,24.71
2022-10-05T16:35:46.678Z,24.68
2022-10-05T16:37:29.239Z,24.66
2022-10-05T16:38:49.125Z,24.66
2022-10-05T16:40:01.986Z,24.63
2022-10-05T16:41:28.305Z,24.61
2022-10-05T16:43:01.087Z,24.62
2022-10-05T16:44:16.136Z,24.62
2022-10-05T16:46:09.802Z,24.61
2022-10-05T16:47:48.648Z,24.59
2022-10-05T16:49:13.158Z,24.57
2022-10-05T16:50:46.157Z,24.56
2022-10-05T16:51:57.909Z,24.52
2022-10-05T16:53:10.979Z,24.52
2022-10-05T16:54:47.995Z,24.53
2022-10-05T16:56:01.081Z,24.49
2022-10-05T16:57:28.370Z,24.50
2022-10-05T16:59:04.164Z,24.50
2022-10-05T17:00:23.495Z,24.51
2022-10-05T17:01:58.621Z,24.50
2022-10-05T17:03:35.018Z,24.48
2022-10-05T17:05:18.341Z,24.47
2022-10-05T17:07:08.912Z,24.46
2022-10-05T17:08:40.533Z,24.44
2022-10-05T17:10:26.572Z,24.43
2022-10-05T17:11:52.891Z,24.40
2022-10-05T17:13:37.308Z,24.42
2022-10-05T17:15:24.391Z,24.39
2022-10-05T17:16:56.278Z,24.39
2022-10-05T17:18:48.905Z,24.40
2022-10-05T17:20:06.958Z,24.37
2022-10-05T17:22:03.068Z,24.37
2022-10-05T17:23:39.761Z,24.35
2022-10-05T17:24:58.579Z,24.34
2022-10-05T17:26:54.721Z,24.33
2022-10-05T17:28:22.063Z,24.29
2022-10-05T17:30:15.061Z,24.28
2022-10-05T17:31:23.454Z,24.23
2022-10-05T17:32:36.277Z,24.23
2022-10-05T17:33:59.813Z,24.21
2022-10-05T17:35:01.503Z,24.17
2022-10-05T17:36:04.622Z,24.15
2022-10-05T17:38:01.032Z,24.17
2022-10-05T17:39:46.645Z,24.17
2022-10-05T17:41:00.392Z,24.14
2022-10-05T17:42:40.403Z,24.15
2022-10-05T17:44:19.040Z,24.14
2022-10-05T17:45:20.687Z,24.09
2022-10-05T17:46:45.910Z,24.11
2022-10-05T17:47:58.016Z,24.11
2022-10-05T17:49:01.214Z,24.07
2022-10-05T17:50:29.892Z,24.05
2022-10-05T17:51:50.248Z,24.07
2022-10-05T17:53:54.875Z,24.10
2022-10-05T17:55:25.585Z,24.06
2022-10-05T17:56:29.581Z,24.06
2022-10-05T17:57:33.853Z,24.04
2022-10-05T17:58:35.486Z,24.05
2022-10-05T17:59:46.166Z,24.00
2022-10-05T18:00:57.034Z,24.06
2022-10-05T18:02:39.074Z,24.07
2022-10-05T18:03:48.877Z,24.06
2022-10-05T18:05:17.628Z,24.06
2022-10-05T18:06:48.035Z,24.06
2022-10-05T18:08:12.746Z,24.07
2022-10-05T18:09:16.859Z,24.00
2022-10-05T18:10:28.815Z,24.03
2022-10-05T18:11:40.074Z,24.03
2022-10-05T18:12:50.041Z,24.02
2022-10-05T18:14:20.052Z,24.04